M I D A S
Marine Information and Data Acquisition System
Tripno 2202 of the Zeeleeuw from 2011-10-20 06:37:34 to 2011-10-20 15:03:50
Back to CruiseResearch ActivitiesStationsMapUnderway DataData graphs

EquipmentUnitsComment
TimeDGPSUTC
LatitudeDGPSDM.mWGS84
LongitudeDGPSDM.mWGS84
HeadingGyrodeg 
SOGDGPSknotsSpeed over ground
COGDGPSdegCourse over ground
DepthEcho soundermeters200 kHz
Missing or incorrect values are displayed as -999
Navigation data collected by the RV Zeeleeuw from 2011-10-20 06:34:08 to 2011-10-20 15:12:48
Time Latitude Longitude Heading SOG COG Depth
2011-10-20 06:35:16 51°13.656 2°55.939 106.9 3.6 288 -999
2011-10-20 06:36:17 51°13.684 2°55.839 120.9 4.7 300 -999
2011-10-20 06:37:17 51°13.737 2°55.732 135.3 5.3 314 -999
2011-10-20 06:38:16 51°13.811 2°55.654 156.1 5.5 336 -999
2011-10-20 06:39:16 51°13.896 2°55.614 174.3 4.8 355 -999
2011-10-20 06:40:16 51°13.957 2°55.631 206.7 3.1 26 -999
2011-10-20 06:41:16 51°13.966 2°55.615 254.9 4.1 271 13.4
2011-10-20 06:42:16 51°14.025 2°55.526 331.1 6.3 330 13.1
2011-10-20 06:43:15 51°14.156 2°55.409 329.2 10.5 329 12.9
2011-10-20 06:44:17 51°14.323 2°55.261 332.3 11.6 331 -999
2011-10-20 06:45:14 51°14.482 2°55.106 327.7 11.8 327 12.6
2011-10-20 06:46:13 51°14.647 2°54.94 327.3 11.9 331 13.6
2011-10-20 06:47:13 51°14.811 2°54.773 323.1 11.3 327 13.2
2011-10-20 06:48:13 51°14.949 2°54.571 309.3 11.7 313 14.2
2011-10-20 06:49:13 51°15.085 2°54.351 316.4 11.5 319 13.4
2011-10-20 06:50:13 51°15.243 2°54.167 321.8 11.6 325 13.9
2011-10-20 06:51:12 51°15.406 2°54.005 324.9 11.5 326 15
2011-10-20 06:52:13 51°15.566 2°53.818 318.5 11.7 321 13.5
2011-10-20 06:53:13 51°15.713 2°53.62 320.1 11.6 323 14
2011-10-20 06:54:12 51°15.877 2°53.451 326 11.8 329 13.4
2011-10-20 06:55:13 51°16.056 2°53.317 337.6 11.6 342 13.5
2011-10-20 06:56:13 51°16.243 2°53.215 336.3 11.9 339 14.1
2011-10-20 06:57:14 51°16.43 2°53.1 335.2 11.7 338 14.3
2011-10-20 06:58:13 51°16.608 2°52.975 332.9 12 336 13.3
2011-10-20 06:59:13 51°16.79 2°52.855 335 11.7 338 10.6
2011-10-20 07:00:12 51°16.972 2°52.739 335.9 12.3 339 10.9
2011-10-20 07:01:12 51°17.169 2°52.664 347.8 12.2 351 11.9
2011-10-20 07:02:12 51°17.364 2°52.607 346.9 11.9 350 11
2011-10-20 07:03:12 51°17.559 2°52.539 343.8 12.1 348 12.1
2011-10-20 07:04:12 51°17.755 2°52.5 353.1 12.2 357 12.3
2011-10-20 07:05:12 51°17.959 2°52.489 356.9 12.4 358 12.2
2011-10-20 07:06:13 51°18.164 2°52.478 354.7 11.7 356 12.7
2011-10-20 07:07:12 51°18.359 2°52.453 352.9 11.7 355 12.3
2011-10-20 07:08:12 51°18.556 2°52.432 355 11.8 357 13.9
2011-10-20 07:09:12 51°18.749 2°52.419 355 11.7 357 13.8
2011-10-20 07:10:13 51°18.948 2°52.396 354.1 11.6 357 14.6
2011-10-20 07:11:13 51°19.141 2°52.386 356.4 10.8 1 -999
2011-10-20 07:12:14 51°19.333 2°52.369 352.7 11.4 355 16.9
2011-10-20 07:13:13 51°19.523 2°52.348 354.3 11.8 356 18
2011-10-20 07:14:12 51°19.714 2°52.326 353.5 11.9 356 17.6
2011-10-20 07:15:12 51°19.911 2°52.307 355.3 11.8 356 17.6
2011-10-20 07:16:12 51°20.11 2°52.29 355.3 12.1 357 17.5
2011-10-20 07:17:13 51°20.31 2°52.265 352.4 11.5 354 -999
2011-10-20 07:18:13 51°20.499 2°52.236 353 11.7 354 15.9
2011-10-20 07:19:13 51°20.69 2°52.218 355.8 11.2 357 15.8
2011-10-20 07:20:12 51°20.879 2°52.196 354 11.6 354 16
2011-10-20 07:21:12 51°21.075 2°52.175 359.1 11.9 1 18.2
2011-10-20 07:22:12 51°21.276 2°52.187 1.2 11.6 3 18.9
2011-10-20 07:23:12 51°21.472 2°52.189 357.1 11.9 359 21.1
2011-10-20 07:24:12 51°21.666 2°52.188 -999 11.5 3 24.2
2011-10-20 07:25:12 51°21.861 2°52.2 1.3 11.8 3 25.7
2011-10-20 07:26:13 51°22.059 2°52.206 357.7 11.9 359 25.2
2011-10-20 07:27:13 51°22.258 2°52.203 358.5 11.7 -999 24.5
2011-10-20 07:28:12 51°22.45 2°52.209 0.3 12.1 2 24.9
2011-10-20 07:29:12 51°22.65 2°52.222 1.6 11.9 4 24.8
2011-10-20 07:30:12 51°22.85 2°52.226 359 12.2 359 23.6
2011-10-20 07:31:12 51°23.05 2°52.223 359.4 12.2 1 22.2
2011-10-20 07:32:12 51°23.241 2°52.224 0.9 11.6 1 21.7
2011-10-20 07:33:12 51°23.438 2°52.225 359.4 12.1 1 18.5
2011-10-20 07:34:12 51°23.644 2°52.224 359.4 12.3 359 18.7
2011-10-20 07:35:13 51°23.85 2°52.224 -999 11.7 -999 19.1
2011-10-20 07:36:13 51°24.045 2°52.226 358.8 11.4 -999 18
2011-10-20 07:37:12 51°24.236 2°52.222 358.9 12 359 19.1
2011-10-20 07:38:12 51°24.434 2°52.22 359.9 12.1 1 19.3
2011-10-20 07:39:12 51°24.635 2°52.215 357.4 12.2 358 22.3
2011-10-20 07:40:13 51°24.833 2°52.211 0.5 11.5 1 24.5
2011-10-20 07:41:12 51°25.023 2°52.214 1 11.7 -999 26.2
2011-10-20 07:42:12 51°25.223 2°52.205 352 12 352 25.8
2011-10-20 07:43:12 51°25.416 2°52.138 346.4 11.9 348 27.6
2011-10-20 07:44:13 51°25.614 2°52.077 349 11.2 354 -999
2011-10-20 07:45:12 51°25.798 2°52.029 349.9 11.2 351 28.7
2011-10-20 07:46:13 51°25.992 2°51.974 347.7 11.3 351 28.6
2011-10-20 07:47:12 51°26.18 2°51.923 349.1 11.7 350 26.1
2011-10-20 07:48:12 51°26.369 2°51.857 342 11.8 343 27.2
2011-10-20 07:49:12 51°26.54 2°51.757 338 8 340 28
2011-10-20 07:50:12 51°26.612 2°51.718 331.3 2.8 333 27.6
2011-10-20 07:51:12 51°26.624 2°51.723 330.7 1.2 123 26.1
2011-10-20 07:52:15 51°26.612 2°51.749 338.2 1.2 123 27.8
2011-10-20 07:53:13 51°26.602 2°51.77 347.6 0.7 118 27.4
2011-10-20 07:54:12 51°26.603 2°51.775 317.8 0.6 26 26.3
2011-10-20 07:55:12 51°26.605 2°51.777 288.9 -999 144 27.7
2011-10-20 07:56:13 51°26.606 2°51.778 278.7 0.3 86 26.5
2011-10-20 07:57:13 51°26.608 2°51.78 278.8 0.3 341 27
2011-10-20 07:58:13 51°26.607 2°51.78 275.3 0.2 151 27.1
2011-10-20 07:59:12 51°26.608 2°51.78 274.8 0.1 335 26.5
2011-10-20 08:00:12 51°26.607 2°51.778 275.8 0.2 184 26.8
2011-10-20 08:01:12 51°26.604 2°51.777 272.9 0.6 205 27.3
2011-10-20 08:02:12 51°26.605 2°51.774 280.4 0.3 34 27.2
2011-10-20 08:03:12 51°26.605 2°51.776 283 0.3 10 26.7
2011-10-20 08:04:12 51°26.606 2°51.778 290.4 0.1 185 27.2
2011-10-20 08:05:12 51°26.608 2°51.779 294.3 0.2 75 26.8
2011-10-20 08:06:12 51°26.608 2°51.78 285.4 0.3 184 26.4
2011-10-20 08:07:12 51°26.607 2°51.778 282.4 0.6 4 26.8
2011-10-20 08:08:12 51°26.606 2°51.776 283.2 0.1 243 27
2011-10-20 08:09:12 51°26.605 2°51.774 284.6 0.2 223 27
2011-10-20 08:10:12 51°26.605 2°51.774 283.9 0.1 103 27.1
2011-10-20 08:11:13 51°26.605 2°51.775 283.4 0.1 350 27.1
2011-10-20 08:12:12 51°26.606 2°51.776 288.2 0.1 46 26.8
2011-10-20 08:13:13 51°26.605 2°51.777 290 0.7 197 27.9
2011-10-20 08:14:12 51°26.606 2°51.779 291.9 0.2 65 28
2011-10-20 08:15:12 51°26.607 2°51.776 290.9 0.2 254 26.4
2011-10-20 08:16:13 51°26.609 2°51.777 300.3 0.3 102 26.1
2011-10-20 08:17:13 51°26.607 2°51.782 296.2 0.1 190 27.3
2011-10-20 08:18:12 51°26.607 2°51.779 283.7 0.2 315 26.9
2011-10-20 08:19:12 51°26.606 2°51.774 280.9 0.2 35 26.2
2011-10-20 08:20:12 51°26.603 2°51.772 275.8 0.5 182 26.9
2011-10-20 08:21:13 51°26.601 2°51.771 280.2 0.1 112 26.9
2011-10-20 08:22:12 51°26.6 2°51.771 286.9 0.2 118 27
2011-10-20 08:23:12 51°26.601 2°51.772 294.8 -999 352 26.8
2011-10-20 08:24:13 51°26.602 2°51.773 299.1 0.2 123 27.6
2011-10-20 08:25:12 51°26.603 2°51.775 303.8 0.2 265 27.3
2011-10-20 08:26:13 51°26.604 2°51.774 300.2 0.1 46 26.8
2011-10-20 08:27:13 51°26.603 2°51.774 294.1 0.4 178 26.8
2011-10-20 08:28:13 51°26.601 2°51.77 290.4 0.3 214 26.9
2011-10-20 08:29:14 51°26.6 2°51.767 289.8 0.4 217 27.3
2011-10-20 08:30:13 51°26.599 2°51.763 292.6 0.3 270 26.3
2011-10-20 08:31:13 51°26.598 2°51.76 294.5 0.4 208 27.1
2011-10-20 08:32:13 51°26.597 2°51.759 295.6 0.3 4 26.5
2011-10-20 08:33:13 51°26.596 2°51.757 298.3 0.3 194 26.8
2011-10-20 08:34:12 51°26.597 2°51.761 309 0.3 66 27.3
2011-10-20 08:35:12 51°26.597 2°51.765 315.6 0.1 295 26.8
2011-10-20 08:36:13 51°26.605 2°51.765 321.6 0.8 1 26.9
2011-10-20 08:37:13 51°26.613 2°51.754 310.9 0.7 294 26.1
2011-10-20 08:38:13 51°26.618 2°51.738 295.6 0.5 288 26.6
2011-10-20 08:39:13 51°26.613 2°51.734 283.8 0.3 183 26.1
2011-10-20 08:40:12 51°26.607 2°51.735 266.5 0.6 174 26.4
2011-10-20 08:41:12 51°26.599 2°51.731 251.5 1 215 26.5
2011-10-20 08:42:13 51°26.6 2°51.679 295.5 3 295 26.8
2011-10-20 08:43:12 51°26.671 2°51.632 349.2 7 352 25.8
2011-10-20 08:44:12 51°26.834 2°51.624 6 11.4 7 24.5
2011-10-20 08:45:13 51°27.031 2°51.678 10.4 12 10 21.2
2011-10-20 08:46:12 51°27.228 2°51.71 5.6 12.2 5 22.2
2011-10-20 08:47:12 51°27.429 2°51.726 2.4 12.3 2 19.4
2011-10-20 08:48:13 51°27.638 2°51.741 5.3 12.4 5 22.7
2011-10-20 08:49:12 51°27.838 2°51.766 4 12.2 3 21.5
2011-10-20 08:50:12 51°28.042 2°51.784 4.7 12.3 6 25.1
2011-10-20 08:51:12 51°28.239 2°51.809 5 12 4 26.3
2011-10-20 08:52:12 51°28.439 2°51.821 2.3 12.1 -999 27
2011-10-20 08:53:12 51°28.636 2°51.84 6 11.4 3 29.5
2011-10-20 08:54:12 51°28.83 2°51.857 3.7 11.9 3 30.1
2011-10-20 08:55:12 51°29.027 2°51.868 4.6 11.7 1 30.7
2011-10-20 08:56:12 51°29.227 2°51.886 3.1 12.1 4 30.8
2011-10-20 08:57:12 51°29.429 2°51.897 3 12.3 2 30.6
2011-10-20 08:58:12 51°29.626 2°51.918 7.8 11.6 5 31
2011-10-20 08:59:12 51°29.824 2°51.944 4.5 12.1 4 31.7
2011-10-20 09:00:12 51°30.026 2°51.96 3.8 12.1 3 30
2011-10-20 09:01:12 51°30.229 2°51.99 5.1 12.1 6 29.6
2011-10-20 09:02:12 51°30.429 2°52.016 3.7 12.2 2 26.2
2011-10-20 09:03:13 51°30.637 2°52.026 3.2 12.5 1 18.2
2011-10-20 09:04:12 51°30.836 2°52.049 6.4 12.2 3 21.4
2011-10-20 09:05:12 51°31.041 2°52.067 3.4 12.4 2 21
2011-10-20 09:06:13 51°31.246 2°52.084 6.6 11.9 5 22.1
2011-10-20 09:07:12 51°31.442 2°52.109 2 12.3 2 22.3
2011-10-20 09:08:12 51°31.643 2°52.1 358.6 12.3 357 26.2
2011-10-20 09:09:12 51°31.846 2°52.091 1.7 12 3 25.3
2011-10-20 09:10:12 51°32.049 2°52.09 0.4 12.5 359 27.1
2011-10-20 09:11:12 51°32.252 2°52.074 359.1 11.8 359 27.7
2011-10-20 09:12:12 51°32.449 2°52.074 1.5 11.6 359 29.7
2011-10-20 09:13:12 51°32.646 2°52.096 11 11.9 10 29.4
2011-10-20 09:14:12 51°32.841 2°52.173 20.4 11.9 21 26.6
2011-10-20 09:15:12 51°33.009 2°52.346 39.8 12.4 41 30
2011-10-20 09:16:12 51°33.162 2°52.561 43.1 12 41 29.8
2011-10-20 09:17:12 51°33.301 2°52.794 52.2 12 54 31.5
2011-10-20 09:18:13 51°33.423 2°53.062 56.1 12.3 55 31.2
2011-10-20 09:19:12 51°33.539 2°53.324 55.6 12.3 52 29.3
2011-10-20 09:20:12 51°33.653 2°53.564 54.5 8.6 52 30.7
2011-10-20 09:21:12 51°33.713 2°53.688 49.2 3.9 51 28.1
2011-10-20 09:22:12 51°33.742 2°53.743 44.4 2 43 30.2
2011-10-20 09:23:13 51°33.76 2°53.773 38.3 1.2 36 31.4
2011-10-20 09:24:12 51°33.769 2°53.789 34.2 0.6 39 31.1
2011-10-20 09:25:12 51°33.775 2°53.801 30.4 0.4 60 29.5
2011-10-20 09:26:12 51°33.777 2°53.811 32.5 0.6 97 29.2
2011-10-20 09:27:12 51°33.775 2°53.819 32.6 0.2 189 30.4
2011-10-20 09:28:12 51°33.768 2°53.825 44.2 0.5 161 29.2
2011-10-20 09:29:12 51°33.76 2°53.827 55.3 0.5 178 29.9
2011-10-20 09:30:12 51°33.755 2°53.835 61.4 0.9 87 29.5
2011-10-20 09:31:12 51°33.769 2°53.872 48 2.1 51 30
2011-10-20 09:32:12 51°33.811 2°53.882 341.7 3.4 333 28.4
2011-10-20 09:33:12 51°33.823 2°53.798 248.3 3.6 238 30.7
2011-10-20 09:34:12 51°33.78 2°53.751 206.2 2.9 202 31.4
2011-10-20 09:35:12 51°33.743 2°53.725 208.1 1.9 205 30.9
2011-10-20 09:36:13 51°33.719 2°53.703 214.3 1.3 214 29.5
2011-10-20 09:37:12 51°33.702 2°53.687 219.4 1 230 27.7
2011-10-20 09:38:12 51°33.689 2°53.677 223.9 0.7 208 30.3
2011-10-20 09:39:12 51°33.678 2°53.67 227.7 1.3 166 30.6
2011-10-20 09:40:12 51°33.67 2°53.667 224.4 0.6 174 29.6
2011-10-20 09:41:13 51°33.662 2°53.67 220.2 0.6 176 29.9
2011-10-20 09:42:12 51°33.655 2°53.67 224.2 0.2 210 28.7
2011-10-20 09:43:12 51°33.647 2°53.67 223.4 0.3 192 28.5
2011-10-20 09:44:12 51°33.639 2°53.67 227.2 0.6 171 28.8
2011-10-20 09:45:12 51°33.631 2°53.669 225.3 0.3 221 29.3
2011-10-20 09:46:12 51°33.623 2°53.667 225.6 0.4 222 30.6
2011-10-20 09:47:12 51°33.613 2°53.668 221.6 0.9 155 30.3
2011-10-20 09:48:12 51°33.603 2°53.668 219.2 0.7 170 30.4
2011-10-20 09:49:12 51°33.593 2°53.664 226.4 0.8 186 30.7
2011-10-20 09:50:12 51°33.584 2°53.659 232.2 0.8 180 30.5
2011-10-20 09:51:12 51°33.575 2°53.654 233.8 0.4 248 29.2
2011-10-20 09:52:13 51°33.566 2°53.654 229.9 0.5 192 29.2
2011-10-20 09:53:12 51°33.557 2°53.654 228.7 0.7 163 27.6
2011-10-20 09:54:12 51°33.549 2°53.659 221.5 0.7 143 27.8
2011-10-20 09:55:12 51°33.542 2°53.666 208.2 0.5 127 28.7
2011-10-20 09:56:12 51°33.537 2°53.671 202.2 0.6 159 29.4
2011-10-20 09:57:12 51°33.531 2°53.675 198.5 0.7 140 30.1
2011-10-20 09:58:12 51°33.523 2°53.676 204.9 0.7 185 30.1
2011-10-20 09:59:12 51°33.513 2°53.674 217 0.8 164 30
2011-10-20 10:00:12 51°33.504 2°53.671 225.8 0.7 166 30.1
2011-10-20 10:01:12 51°33.496 2°53.669 229.6 0.4 198 29.3
2011-10-20 10:02:12 51°33.489 2°53.673 223.8 0.4 147 28.6
2011-10-20 10:03:12 51°33.484 2°53.678 215.1 0.4 140 28.5
2011-10-20 10:04:12 51°33.477 2°53.682 212.3 0.5 154 28.9
2011-10-20 10:05:12 51°33.47 2°53.683 212.8 0.4 169 28.5
2011-10-20 10:06:12 51°33.462 2°53.687 211.1 0.9 140 28.4
2011-10-20 10:07:12 51°33.449 2°53.683 215.8 1.2 216 27.6
2011-10-20 10:08:12 51°33.425 2°53.626 255 3.7 249 29
2011-10-20 10:09:12 51°33.415 2°53.511 270.5 4.7 271 28.6
2011-10-20 10:10:12 51°33.414 2°53.392 274.6 3.7 271 29.5
2011-10-20 10:11:12 51°33.417 2°53.3 279.5 3 279 29.3
2011-10-20 10:12:12 51°33.418 2°53.238 281.6 1.7 272 29.4
2011-10-20 10:13:12 51°33.414 2°53.207 282.8 0.7 251 30.6
2011-10-20 10:14:12 51°33.407 2°53.191 287.2 0.5 227 30.7
2011-10-20 10:15:12 51°33.399 2°53.185 282.7 0.8 184 30.5
2011-10-20 10:16:12 51°33.39 2°53.191 269.8 0.9 157 29.5
2011-10-20 10:17:12 51°33.382 2°53.203 250.4 0.8 132 30
2011-10-20 10:18:12 51°33.377 2°53.212 236.8 -999 214 29.6
2011-10-20 10:19:12 51°33.371 2°53.216 225.5 0.5 174 29.4
2011-10-20 10:20:12 51°33.362 2°53.217 216 0.8 180 29.5
2011-10-20 10:21:12 51°33.353 2°53.218 213.7 0.5 190 29.4
2011-10-20 10:22:12 51°33.34 2°53.216 211.3 0.7 187 28.1
2011-10-20 10:23:12 51°33.327 2°53.21 221.5 1 178 29.4
2011-10-20 10:24:12 51°33.316 2°53.204 225.1 0.8 189 29.3
2011-10-20 10:25:12 51°33.307 2°53.201 226 0.6 210 28.8
2011-10-20 10:26:12 51°33.297 2°53.197 223.9 0.6 177 29.6
2011-10-20 10:27:12 51°33.287 2°53.196 222.3 0.5 191 28.9
2011-10-20 10:28:12 51°33.276 2°53.197 217.4 0.8 156 28.9
2011-10-20 10:29:12 51°33.266 2°53.197 215.7 0.6 175 27.8
2011-10-20 10:30:12 51°33.256 2°53.196 209.7 0.5 200 27.3
2011-10-20 10:31:12 51°33.245 2°53.195 208.6 0.8 184 28.2
2011-10-20 10:32:12 51°33.233 2°53.192 212.5 0.5 191 28.9
2011-10-20 10:33:12 51°33.222 2°53.189 218.6 0.5 205 28.9
2011-10-20 10:34:12 51°33.209 2°53.185 222.4 0.7 196 28
2011-10-20 10:35:12 51°33.185 2°53.128 257.6 3.8 263 27.3
2011-10-20 10:36:12 51°33.201 2°53.027 316.1 3.7 311 28.1
2011-10-20 10:37:12 51°33.247 2°52.997 13.9 2.4 13 27.6
2011-10-20 10:38:12 51°33.278 2°53.019 27.6 1.5 24 28.6
2011-10-20 10:39:12 51°33.292 2°53.035 27.7 0.7 20 25.4
2011-10-20 10:40:12 51°33.301 2°53.045 27.2 0.5 53 26.2
2011-10-20 10:41:12 51°33.303 2°53.052 31 -999 231 27.6
2011-10-20 10:42:12 51°33.3 2°53.058 33.3 0.1 221 27.7
2011-10-20 10:43:12 51°33.295 2°53.063 36.3 0.7 137 27.7
2011-10-20 10:44:12 51°33.293 2°53.068 34.9 0.5 31 27.4
2011-10-20 10:45:12 51°33.317 2°53.095 30.1 2.7 28 29.1
2011-10-20 10:46:12 51°33.351 2°53.13 30.9 2.2 41 30.7
2011-10-20 10:47:12 51°33.373 2°53.151 27.5 0.9 26 29.7
2011-10-20 10:48:12 51°33.38 2°53.165 28.5 0.2 58 28.9
2011-10-20 10:49:12 51°33.381 2°53.172 26.5 0.4 118 28.4
2011-10-20 10:50:12 51°33.378 2°53.176 29 0.4 143 28.4
2011-10-20 10:51:12 51°33.372 2°53.179 31.9 0.6 160 28.9
2011-10-20 10:52:12 51°33.361 2°53.182 38.3 1 156 29.3
2011-10-20 10:53:13 51°33.349 2°53.18 46.4 0.8 180 29.1
2011-10-20 10:54:12 51°33.344 2°53.187 48.7 0.3 25 28.5
2011-10-20 10:55:12 51°33.351 2°53.207 41.1 0.9 39 28.8
2011-10-20 10:56:12 51°33.363 2°53.232 38.1 1.3 55 29.1
2011-10-20 10:57:12 51°33.379 2°53.256 35 1.3 39 28.8
2011-10-20 10:58:12 51°33.395 2°53.283 37.1 1.4 49 26.5
2011-10-20 10:59:12 51°33.412 2°53.312 40 1.6 58 29.8
2011-10-20 11:00:12 51°33.427 2°53.342 44 1.4 65 30.6
2011-10-20 11:01:12 51°33.439 2°53.375 48.4 1.4 53 26.7
2011-10-20 11:02:12 51°33.451 2°53.406 46.5 1.5 54 27.4
2011-10-20 11:03:12 51°33.465 2°53.439 46.5 1.6 41 29.1
2011-10-20 11:04:12 51°33.478 2°53.472 47.9 1.1 57 28.8
2011-10-20 11:05:12 51°33.487 2°53.503 48.3 1.3 54 28.6
2011-10-20 11:06:12 51°33.495 2°53.535 48.5 1.1 63 30
2011-10-20 11:07:12 51°33.504 2°53.56 41.9 1.1 27 28.4
2011-10-20 11:08:12 51°33.516 2°53.585 35.7 1.4 62 27.4
2011-10-20 11:09:12 51°33.531 2°53.604 29.9 1.2 46 28.8
2011-10-20 11:10:12 51°33.546 2°53.619 26.3 1.3 32 30.1
2011-10-20 11:11:12 51°33.564 2°53.633 24.1 1.2 39 28
2011-10-20 11:12:12 51°33.58 2°53.645 22.9 1.1 26 28.9
2011-10-20 11:13:12 51°33.597 2°53.658 20.3 1.1 20 29.8
2011-10-20 11:14:12 51°33.609 2°53.668 21.5 0.3 17 30.2
2011-10-20 11:15:12 51°33.611 2°53.673 19.7 0.4 127 30.7
2011-10-20 11:16:12 51°33.604 2°53.675 26.8 0.4 198 29.8
2011-10-20 11:17:12 51°33.592 2°53.675 31.2 0.9 228 29.4
2011-10-20 11:18:12 51°33.577 2°53.673 39.3 0.9 183 29.3
2011-10-20 11:19:12 51°33.559 2°53.667 53.8 1.2 203 28.2
2011-10-20 11:20:12 51°33.539 2°53.657 60.5 1.2 210 28.7
2011-10-20 11:21:12 51°33.521 2°53.648 61.7 1 206 29
2011-10-20 11:22:12 51°33.504 2°53.643 54.6 1.1 187 28.7
2011-10-20 11:23:12 51°33.489 2°53.64 48.1 0.7 192 28.5
2011-10-20 11:24:12 51°33.479 2°53.639 37.8 0.5 216 27.3
2011-10-20 11:25:12 51°33.47 2°53.639 27.8 0.6 171 26.4
2011-10-20 11:26:12 51°33.461 2°53.639 22.8 0.4 191 26.3
2011-10-20 11:27:12 51°33.453 2°53.637 16.1 0.4 177 26.4
2011-10-20 11:28:12 51°33.444 2°53.637 22.7 0.6 166 27.9
2011-10-20 11:29:12 51°33.437 2°53.641 29.1 0.1 99 28
2011-10-20 11:30:12 51°33.451 2°53.653 14.5 1.4 13 25.9
2011-10-20 11:31:12 51°33.475 2°53.649 357.2 1.5 345 27.8
2011-10-20 11:32:12 51°33.504 2°53.646 13 1.7 15 28.6
2011-10-20 11:33:12 51°33.521 2°53.676 46.7 2 50 29.6
2011-10-20 11:34:12 51°33.545 2°53.709 27.8 2.1 26 28.6
2011-10-20 11:35:12 51°33.578 2°53.724 14 1.8 17 29.1
2011-10-20 11:36:12 51°33.608 2°53.736 17.2 1.8 12 27.6
2011-10-20 11:37:12 51°33.638 2°53.753 24.2 2 23 27.4
2011-10-20 11:38:12 51°33.668 2°53.776 25.7 1.9 20 29.2
2011-10-20 11:39:12 51°33.695 2°53.768 340.8 1.7 324 29.5
2011-10-20 11:40:12 51°33.703 2°53.722 292.7 2.1 269 28.7
2011-10-20 11:41:12 51°33.684 2°53.668 231.3 2.8 218 29.9
2011-10-20 11:42:12 51°33.643 2°53.633 199.3 2.5 203 29.3
2011-10-20 11:43:12 51°33.609 2°53.606 206.5 2.1 203 30.1
2011-10-20 11:44:12 51°33.582 2°53.587 210.8 1.7 199 29.1
2011-10-20 11:45:12 51°33.558 2°53.568 219.5 1.5 211 29.3
2011-10-20 11:46:12 51°33.534 2°53.551 223 1.8 192 28.9
2011-10-20 11:47:12 51°33.512 2°53.537 224.6 1.6 186 30
2011-10-20 11:48:12 51°33.493 2°53.525 227.5 1.4 189 30.3
2011-10-20 11:49:12 51°33.475 2°53.517 222.9 1.3 184 30.1
2011-10-20 11:50:12 51°33.456 2°53.51 216.2 1.1 200 28.3
2011-10-20 11:51:12 51°33.439 2°53.504 208.8 1.2 207 28.1
2011-10-20 11:52:12 51°33.42 2°53.496 208.3 1.8 212 28.4
2011-10-20 11:53:12 51°33.388 2°53.456 244.8 2.7 238 25.5
2011-10-20 11:54:12 51°33.366 2°53.389 280.2 2.9 251 28
2011-10-20 11:55:12 51°33.366 2°53.332 330.2 1.5 288 28.2
2011-10-20 11:56:12 51°33.368 2°53.319 18.4 0.5 248 26.7
2011-10-20 11:57:12 51°33.361 2°53.323 48.6 0.7 153 26.3
2011-10-20 11:58:12 51°33.352 2°53.329 56.1 0.7 153 26.3
2011-10-20 11:59:12 51°33.34 2°53.339 64.1 0.8 149 26.8
2011-10-20 12:00:12 51°33.331 2°53.352 49.6 0.3 116 26.7
2011-10-20 12:01:12 51°33.331 2°53.361 24.7 0.8 76 26.5
2011-10-20 12:02:12 51°33.342 2°53.363 12 1 344 26.5
2011-10-20 12:03:12 51°33.355 2°53.359 4.6 1 339 27.2
2011-10-20 12:04:12 51°33.369 2°53.351 358.2 0.9 343 28.2
2011-10-20 12:05:12 51°33.377 2°53.339 353.4 0.6 307 28.1
2011-10-20 12:06:12 51°33.388 2°53.324 348.4 1 317 28.9
2011-10-20 12:07:12 51°33.401 2°53.304 343.7 1.1 306 28.1
2011-10-20 12:08:12 51°33.406 2°53.271 308.6 1.7 276 26.5
2011-10-20 12:09:12 51°33.396 2°53.232 277.3 1.2 253 30
2011-10-20 12:10:12 51°33.376 2°53.208 259.9 1.4 203 29.2
2011-10-20 12:11:12 51°33.356 2°53.2 239 1.2 202 28.3
2011-10-20 12:12:12 51°33.338 2°53.195 221.5 1.2 195 28.5
2011-10-20 12:13:12 51°33.323 2°53.19 201.9 0.9 197 29.3
2011-10-20 12:14:12 51°33.309 2°53.187 187.7 0.9 178 29.3
2011-10-20 12:15:12 51°33.293 2°53.184 179.5 0.9 190 28.6
2011-10-20 12:16:12 51°33.277 2°53.18 177.9 1.1 181 28.3
2011-10-20 12:17:12 51°33.261 2°53.174 185.4 1.1 194 28
2011-10-20 12:18:12 51°33.244 2°53.169 188.2 1.2 203 27.1
2011-10-20 12:19:12 51°33.225 2°53.162 193.9 1 197 27.6
2011-10-20 12:20:12 51°33.208 2°53.156 197.5 1.4 176 25.5
2011-10-20 12:21:12 51°33.192 2°53.149 196.4 1.2 178 27.5
2011-10-20 12:22:12 51°33.175 2°53.143 189.5 0.8 187 27.6
2011-10-20 12:23:12 51°33.137 2°53.113 224.7 3.9 219 28.2
2011-10-20 12:24:12 51°33.118 2°53.019 295.7 3.7 282 28.3
2011-10-20 12:25:12 51°33.162 2°52.93 329.8 5.9 317 29.1
2011-10-20 12:26:12 51°33.246 2°52.848 357.2 5.8 353 29.3
2011-10-20 12:27:12 51°33.331 2°52.913 44.6 6.1 45 26.7
2011-10-20 12:28:12 51°33.408 2°53.023 35.8 6.4 34 29.3
2011-10-20 12:29:12 51°33.474 2°53.144 53.3 6.2 58 30.3
2011-10-20 12:30:12 51°33.536 2°53.277 47.1 6.4 47 28.4
2011-10-20 12:31:12 51°33.604 2°53.414 49.2 6.4 54 31.4
2011-10-20 12:32:12 51°33.67 2°53.554 50.9 6.8 52 29.7
2011-10-20 12:33:12 51°33.721 2°53.667 47.1 3.4 50 26.7
2011-10-20 12:34:12 51°33.744 2°53.703 34.2 1.1 41 29.3
2011-10-20 12:35:12 51°33.75 2°53.708 21.5 0.2 295 30.2
2011-10-20 12:36:12 51°33.746 2°53.704 20.4 0.6 199 29.8
2011-10-20 12:37:12 51°33.735 2°53.698 20.4 0.9 193 29.9
2011-10-20 12:38:12 51°33.718 2°53.688 24.8 1.2 204 28.6
2011-10-20 12:39:12 51°33.699 2°53.676 30.6 1.2 200 28.5
2011-10-20 12:40:12 51°33.677 2°53.662 40.7 1.3 207 29.4
2011-10-20 12:41:12 51°33.654 2°53.648 47.2 1.4 205 28.4
2011-10-20 12:42:12 51°33.633 2°53.637 47.3 1.5 180 29.9
2011-10-20 12:43:12 51°33.61 2°53.622 44.7 1.6 204 30
2011-10-20 12:44:12 51°33.588 2°53.607 46.1 1.4 192 29.9
2011-10-20 12:45:12 51°33.566 2°53.594 44.4 1.5 195 29.4
2011-10-20 12:46:12 51°33.546 2°53.583 41.5 1.6 181 30.1
2011-10-20 12:47:12 51°33.527 2°53.57 38.7 1.4 196 26.8
2011-10-20 12:48:12 51°33.507 2°53.56 39.3 0.8 181 28.4
2011-10-20 12:49:12 51°33.519 2°53.555 349.5 1.5 330 29.4
2011-10-20 12:50:12 51°33.531 2°53.497 290 3.2 273 29.3
2011-10-20 12:51:12 51°33.51 2°53.432 245.6 2.3 238 29.5
2011-10-20 12:52:12 51°33.482 2°53.394 236.7 2 227 27.7
2011-10-20 12:53:12 51°33.456 2°53.367 238.8 1.7 217 25.8
2011-10-20 12:54:12 51°33.432 2°53.344 238.1 1.6 210 30.1
2011-10-20 12:55:12 51°33.408 2°53.328 237.4 1.5 193 29.7
2011-10-20 12:56:12 51°33.387 2°53.318 227.6 1.3 199 28.7
2011-10-20 12:57:12 51°33.366 2°53.31 215.6 1.3 179 27.8
2011-10-20 12:58:12 51°33.347 2°53.3 204.7 1.3 189 30.1
2011-10-20 12:59:12 51°33.326 2°53.29 199.9 1.4 202 29.9
2011-10-20 13:00:12 51°33.307 2°53.282 198.9 1.1 206 28.9
2011-10-20 13:01:12 51°33.286 2°53.273 201.5 1.6 191 29.4
2011-10-20 13:02:12 51°33.243 2°53.239 206.6 2.9 208 27.6
2011-10-20 13:03:12 51°33.206 2°53.207 212.1 2.5 192 28.6
2011-10-20 13:04:12 51°33.172 2°53.18 217.5 2.2 202 28
2011-10-20 13:05:12 51°33.144 2°53.157 220.9 1.6 207 25.3
2011-10-20 13:06:12 51°33.119 2°53.139 224.6 1.5 209 28.3
2011-10-20 13:07:12 51°33.095 2°53.125 221.2 1.6 206 28.1
2011-10-20 13:08:12 51°33.071 2°53.11 215.7 2.3 204 26.7
2011-10-20 13:09:12 51°33.041 2°53.009 283.3 5.9 278 26.6
2011-10-20 13:10:12 51°33.121 2°52.916 354.3 6.5 346 28.1
2011-10-20 13:11:12 51°33.198 2°52.84 310.2 4.3 292 29.4
2011-10-20 13:12:12 51°33.187 2°52.751 254.3 3 235 30.3
2011-10-20 13:13:12 51°33.157 2°52.705 230.3 2.2 222 27.7
2011-10-20 13:14:12 51°33.128 2°52.673 228 2 213 28.2
2011-10-20 13:15:12 51°33.103 2°52.648 230.2 1.8 204 29.8
2011-10-20 13:16:12 51°33.079 2°52.626 229 1.7 222 29.2
2011-10-20 13:17:12 51°33.051 2°52.598 232 1.7 216 30.4
2011-10-20 13:18:12 51°33.025 2°52.579 228.4 1.7 205 27.7
2011-10-20 13:19:12 51°32.994 2°52.551 230.4 2.7 213 29.8
2011-10-20 13:20:12 51°32.962 2°52.501 253.8 2.9 224 30.4
2011-10-20 13:21:12 51°32.942 2°52.439 278.5 2.5 255 27.2
2011-10-20 13:22:13 51°32.934 2°52.365 292.9 2.9 276 29.4
2011-10-20 13:23:13 51°32.934 2°52.28 291 3.3 269 30.3
2011-10-20 13:24:13 51°32.928 2°52.186 275.3 3.6 259 30.8
2011-10-20 13:25:13 51°32.908 2°52.09 259.4 3.9 242 29.4
2011-10-20 13:26:13 51°32.872 2°51.996 241.8 4.3 236 30.6
2011-10-20 13:27:13 51°32.81 2°51.905 219 5.9 213 28.7
2011-10-20 13:28:13 51°32.707 2°51.836 189.5 7.1 191 29.5
2011-10-20 13:29:13 51°32.58 2°51.818 178.3 7.8 184 31.7
2011-10-20 13:30:13 51°32.441 2°51.804 178.5 8.7 184 30.1
2011-10-20 13:31:13 51°32.294 2°51.791 177.9 8.9 183 24.5
2011-10-20 13:32:13 51°32.146 2°51.775 178.4 8.8 185 27.6
2011-10-20 13:33:13 51°31.987 2°51.758 179.1 10.9 182 27.7
2011-10-20 13:34:13 51°31.788 2°51.74 180.1 12.6 181 25.9
2011-10-20 13:35:13 51°31.575 2°51.722 179.8 12.9 185 23.2
2011-10-20 13:36:13 51°31.36 2°51.705 178.4 13.4 184 24.2
2011-10-20 13:37:13 51°31.147 2°51.685 179.6 12.2 183 23
2011-10-20 13:38:13 51°30.932 2°51.673 176.5 12.8 184 18.7
2011-10-20 13:39:13 51°30.718 2°51.66 179.6 12.6 182 21.3
2011-10-20 13:40:13 51°30.501 2°51.649 177.8 13.2 183 20.8
2011-10-20 13:41:13 51°30.287 2°51.641 179.9 12.6 182 23.8
2011-10-20 13:42:13 51°30.078 2°51.63 179.8 12.7 184 29
2011-10-20 13:43:13 51°29.875 2°51.613 180 12.5 185 30.4
2011-10-20 13:44:12 51°29.678 2°51.603 178.5 11.7 185 30.2
2011-10-20 13:45:13 51°29.473 2°51.586 180.6 12 184 28.8
2011-10-20 13:46:12 51°29.273 2°51.57 179.3 12.1 182 28.4
2011-10-20 13:47:13 51°29.069 2°51.55 178.7 11.8 184 29.8
2011-10-20 13:48:12 51°28.871 2°51.533 177.5 12 181 29.5
2011-10-20 13:49:13 51°28.664 2°51.51 178.6 12.4 181 28.5
2011-10-20 13:50:13 51°28.459 2°51.489 179.9 12.6 183 28.9
2011-10-20 13:51:13 51°28.255 2°51.47 177.9 12.3 182 26.1
2011-10-20 13:52:13 51°28.05 2°51.448 179.5 12.3 183 24.9
2011-10-20 13:53:13 51°27.844 2°51.424 180.6 12.4 188 23.6
2011-10-20 13:54:13 51°27.638 2°51.405 177.9 12.4 182 22.5
2011-10-20 13:55:12 51°27.436 2°51.389 180.5 12.4 184 18.8
2011-10-20 13:56:13 51°27.226 2°51.37 180.8 11.8 182 21.2
2011-10-20 13:57:12 51°27.026 2°51.351 180.7 12.8 185 21.1
2011-10-20 13:58:13 51°26.819 2°51.331 179.7 12 183 24.1
2011-10-20 13:59:13 51°26.615 2°51.312 179.4 12.2 185 24.9
2011-10-20 14:00:12 51°26.414 2°51.294 179.4 12.3 183 27.3
2011-10-20 14:01:12 51°26.212 2°51.271 179.4 12.3 180 24.7
2011-10-20 14:02:12 51°26.009 2°51.254 178.9 12.5 185 23.8
2011-10-20 14:03:13 51°25.801 2°51.229 178.6 12.4 187 23.9
2011-10-20 14:04:13 51°25.596 2°51.207 179.1 12.8 182 24
2011-10-20 14:05:13 51°25.39 2°51.179 179.8 12.9 186 23.5
2011-10-20 14:06:12 51°25.189 2°51.159 177.1 12.7 185 23.1
2011-10-20 14:07:13 51°24.979 2°51.134 176.7 13 185 23.4
2011-10-20 14:08:13 51°24.773 2°51.104 179.5 12.7 184 23.6
2011-10-20 14:09:13 51°24.566 2°51.075 180.2 12.7 186 22.7
2011-10-20 14:10:13 51°24.359 2°51.044 179.7 12.3 185 22.2
2011-10-20 14:11:13 51°24.151 2°51.018 177.9 12.3 186 22.2
2011-10-20 14:12:13 51°23.945 2°50.995 179.9 12.1 184 19.8
2011-10-20 14:13:12 51°23.742 2°50.981 179 12.4 183 19.7
2011-10-20 14:14:12 51°23.541 2°50.974 178.9 11.8 183 16.1
2011-10-20 14:15:12 51°23.336 2°50.961 179 13.1 182 15.1
2011-10-20 14:16:12 51°23.132 2°50.95 177.4 12.1 180 15.6
2011-10-20 14:17:13 51°22.927 2°50.961 175.7 12.7 181 21.4
2011-10-20 14:18:12 51°22.729 2°50.968 176.7 12.4 182 22.6
2011-10-20 14:19:13 51°22.524 2°50.976 175.3 11.5 179 22.5
2011-10-20 14:20:12 51°22.325 2°50.988 175.7 11.9 179 23
2011-10-20 14:21:13 51°22.121 2°50.996 174.8 12.2 178 22.8
2011-10-20 14:22:12 51°21.926 2°51.01 171.6 11.4 177 23.4
2011-10-20 14:23:13 51°21.724 2°51.031 173.9 11.7 181 24.9
2011-10-20 14:24:12 51°21.529 2°51.049 173 12.4 178 24.5
2011-10-20 14:25:13 51°21.329 2°51.068 172.4 12.2 173 24
2011-10-20 14:26:13 51°21.132 2°51.09 171.1 12.4 175 23
2011-10-20 14:27:13 51°20.935 2°51.111 170.4 11.7 175 20.4
2011-10-20 14:28:13 51°20.736 2°51.143 169.1 12.4 173 18.3
2011-10-20 14:29:13 51°20.536 2°51.167 172 11.4 177 16.7
2011-10-20 14:30:13 51°20.336 2°51.192 169.9 12 174 15.9
2011-10-20 14:31:13 51°20.134 2°51.216 171.7 12.5 180 14.1
2011-10-20 14:32:13 51°19.937 2°51.237 169.4 11.1 173 12
2011-10-20 14:33:13 51°19.736 2°51.273 167 12 177 15.3
2011-10-20 14:34:13 51°19.536 2°51.312 165.8 12.6 171 15.9
2011-10-20 14:35:13 51°19.337 2°51.367 166.3 12.3 171 16
2011-10-20 14:36:13 51°19.14 2°51.422 163.5 11.8 172 15.9
2011-10-20 14:37:13 51°18.941 2°51.482 164.8 12.2 171 15.1
2011-10-20 14:38:13 51°18.741 2°51.535 167.1 12 168 14.8
2011-10-20 14:39:13 51°18.545 2°51.593 166.9 11.8 167 13.9
2011-10-20 14:40:13 51°18.349 2°51.651 164.1 11.8 167 13.1
2011-10-20 14:41:13 51°18.159 2°51.731 160.3 11.3 165 12
2011-10-20 14:42:13 51°17.966 2°51.814 159 11.2 163 11.3
2011-10-20 14:43:13 51°17.779 2°51.905 159.6 12.3 161 11.3
2011-10-20 14:44:13 51°17.592 2°51.993 160.9 11.5 166 11.3
2011-10-20 14:45:13 51°17.401 2°52.075 162 11.8 164 12.2
2011-10-20 14:46:13 51°17.211 2°52.166 155 11.4 159 12.3
2011-10-20 14:47:12 51°17.034 2°52.291 149.3 12.2 154 11.2
2011-10-20 14:48:13 51°16.854 2°52.429 150 12.3 155 11
2011-10-20 14:49:12 51°16.678 2°52.563 152.2 12.5 151 12.2
2011-10-20 14:50:13 51°16.5 2°52.71 145.3 11.2 156 12.7
2011-10-20 14:51:12 51°16.341 2°52.888 144.1 11.6 143 13.2
2011-10-20 14:52:12 51°16.18 2°53.069 141.8 12.1 146 13.7
2011-10-20 14:53:12 51°16.017 2°53.247 142.8 12.1 144 13.5
2011-10-20 14:54:13 51°15.859 2°53.448 140.4 12 141 13.6
2011-10-20 14:55:13 51°15.699 2°53.631 143.9 11.4 148 13.1
2011-10-20 14:56:12 51°15.545 2°53.816 141.3 11.8 141 12.9
2011-10-20 14:57:13 51°15.387 2°54.01 146 12.2 148 13
2011-10-20 14:58:12 51°15.234 2°54.194 141.6 11.2 143 12.6
2011-10-20 14:59:12 51°15.075 2°54.38 141.9 11.6 142 12.8
2011-10-20 15:00:12 51°14.92 2°54.566 142.1 11.6 143 12.7
2011-10-20 15:01:13 51°14.763 2°54.755 141.9 11.1 140 12.7
2011-10-20 15:02:12 51°14.611 2°54.941 141.8 12 139 13.3
2011-10-20 15:03:12 51°14.456 2°55.123 145.1 11.4 147 12.2
2011-10-20 15:04:13 51°14.299 2°55.274 147 10.1 149 12
2011-10-20 15:05:13 51°14.15 2°55.401 152.8 10.1 153 12
2011-10-20 15:06:13 51°14.023 2°55.493 155.2 7.1 156 12.6
2011-10-20 15:07:12 51°13.922 2°55.563 155.6 6.8 157 12.8
2011-10-20 15:08:13 51°13.82 2°55.637 152.6 6.2 153 12.6
2011-10-20 15:09:13 51°13.743 2°55.73 133.2 5.6 134 12.6
2011-10-20 15:10:12 51°13.689 2°55.841 125.5 4.9 126 11.8
2011-10-20 15:11:12 51°13.652 2°55.935 115.2 3.7 116 12
2011-10-20 15:12:12 51°13.637 2°56.009 100.6 1.9 104 8.6